sensor_id;sensor_type;location;lat;lon;timestamp;P1;durP1;ratioP1;P2;durP2;ratioP2
5900;SDS011;2976;49.764;9.796;2022-10-16T00:01:11;2.60;;;1.27;;
5900;SDS011;2976;49.764;9.796;2022-10-16T00:03:39;1.83;;;1.23;;
5900;SDS011;2976;49.764;9.796;2022-10-16T00:06:05;3.03;;;1.07;;
5900;SDS011;2976;49.764;9.796;2022-10-16T00:08:32;1.13;;;1.03;;
5900;SDS011;2976;49.764;9.796;2022-10-16T00:10:58;1.17;;;1.17;;
5900;SDS011;2976;49.764;9.796;2022-10-16T00:13:28;0.90;;;0.90;;
5900;SDS011;2976;49.764;9.796;2022-10-16T00:15:55;1.10;;;1.00;;
5900;SDS011;2976;49.764;9.796;2022-10-16T00:18:22;1.43;;;1.17;;
5900;SDS011;2976;49.764;9.796;2022-10-16T00:20:47;2.83;;;1.00;;
5900;SDS011;2976;49.764;9.796;2022-10-16T00:23:13;6.10;;;1.40;;
5900;SDS011;2976;49.764;9.796;2022-10-16T00:25:38;2.30;;;1.00;;
5900;SDS011;2976;49.764;9.796;2022-10-16T00:28:04;2.40;;;1.03;;
5900;SDS011;2976;49.764;9.796;2022-10-16T00:30:29;5.23;;;1.27;;
5900;SDS011;2976;49.764;9.796;2022-10-16T00:32:55;2.03;;;1.00;;
5900;SDS011;2976;49.764;9.796;2022-10-16T00:35:21;1.83;;;0.83;;
5900;SDS011;2976;49.764;9.796;2022-10-16T00:37:47;3.30;;;1.07;;
5900;SDS011;2976;49.764;9.796;2022-10-16T00:40:12;1.30;;;1.20;;
5900;SDS011;2976;49.764;9.796;2022-10-16T00:42:38;2.30;;;1.03;;
5900;SDS011;2976;49.764;9.796;2022-10-16T00:45:04;5.80;;;1.30;;
5900;SDS011;2976;49.764;9.796;2022-10-16T00:50:08;0.93;;;0.93;;
5900;SDS011;2976;49.764;9.796;2022-10-16T00:52:39;0.87;;;0.87;;
5900;SDS011;2976;49.764;9.796;2022-10-16T00:55:09;5.10;;;1.10;;
5900;SDS011;2976;49.764;9.796;2022-10-16T00:57:36;3.07;;;1.10;;
5900;SDS011;2976;49.764;9.796;2022-10-16T01:00:06;1.07;;;1.00;;
5900;SDS011;2976;49.764;9.796;2022-10-16T01:02:33;1.27;;;1.27;;
5900;SDS011;2976;49.764;9.796;2022-10-16T01:04:59;5.23;;;1.20;;
5900;SDS011;2976;49.764;9.796;2022-10-16T01:12:50;2.40;;;1.20;;
5900;SDS011;2976;49.764;9.796;2022-10-16T01:15:23;2.30;;;1.03;;
5900;SDS011;2976;49.764;9.796;2022-10-16T01:20:44;1.37;;;1.27;;
5900;SDS011;2976;49.764;9.796;2022-10-16T01:31:22;5.77;;;1.93;;
5900;SDS011;2976;49.764;9.796;2022-10-16T01:33:53;2.50;;;1.43;;
5900;SDS011;2976;49.764;9.796;2022-10-16T01:36:28;1.60;;;1.50;;
5900;SDS011;2976;49.764;9.796;2022-10-16T01:39:01;5.13;;;2.70;;
5900;SDS011;2976;49.764;9.796;2022-10-16T01:41:30;6.50;;;4.17;;
5900;SDS011;2976;49.764;9.796;2022-10-16T01:44:02;2.57;;;1.87;;
5900;SDS011;2976;49.764;9.796;2022-10-16T01:46:31;1.57;;;1.47;;
5900;SDS011;2976;49.764;9.796;2022-10-16T01:49:01;1.60;;;1.50;;
5900;SDS011;2976;49.764;9.796;2022-10-16T01:51:28;6.30;;;1.80;;
5900;SDS011;2976;49.764;9.796;2022-10-16T01:53:55;1.50;;;1.50;;
5900;SDS011;2976;49.764;9.796;2022-10-16T01:56:24;4.10;;;1.80;;
5900;SDS011;2976;49.764;9.796;2022-10-16T01:58:55;4.90;;;1.70;;
5900;SDS011;2976;49.764;9.796;2022-10-16T02:01:29;1.80;;;1.70;;
5900;SDS011;2976;49.764;9.796;2022-10-16T02:03:58;2.40;;;1.73;;
5900;SDS011;2976;49.764;9.796;2022-10-16T02:06:38;2.10;;;1.20;;
5900;SDS011;2976;49.764;9.796;2022-10-16T02:09:03;2.30;;;1.63;;
5900;SDS011;2976;49.764;9.796;2022-10-16T02:11:29;3.07;;;1.40;;
5900;SDS011;2976;49.764;9.796;2022-10-16T02:13:56;2.00;;;1.60;;
5900;SDS011;2976;49.764;9.796;2022-10-16T02:16:43;1.27;;;1.17;;
5900;SDS011;2976;49.764;9.796;2022-10-16T02:19:10;1.33;;;1.17;;
5900;SDS011;2976;49.764;9.796;2022-10-16T02:21:42;5.03;;;1.30;;
5900;SDS011;2976;49.764;9.796;2022-10-16T02:29:26;3.40;;;1.03;;
5900;SDS011;2976;49.764;9.796;2022-10-16T02:31:53;1.77;;;1.23;;
5900;SDS011;2976;49.764;9.796;2022-10-16T02:34:23;6.27;;;2.00;;
5900;SDS011;2976;49.764;9.796;2022-10-16T02:36:51;1.43;;;1.00;;
5900;SDS011;2976;49.764;9.796;2022-10-16T02:39:18;1.43;;;1.33;;
5900;SDS011;2976;49.764;9.796;2022-10-16T02:41:45;1.23;;;1.13;;
5900;SDS011;2976;49.764;9.796;2022-10-16T02:44:10;0.97;;;0.80;;
5900;SDS011;2976;49.764;9.796;2022-10-16T02:46:36;2.20;;;1.00;;
5900;SDS011;2976;49.764;9.796;2022-10-16T02:49:02;3.13;;;1.00;;
5900;SDS011;2976;49.764;9.796;2022-10-16T02:51:27;1.20;;;1.10;;
5900;SDS011;2976;49.764;9.796;2022-10-16T02:53:53;2.03;;;1.00;;
5900;SDS011;2976;49.764;9.796;2022-10-16T02:56:18;1.03;;;1.03;;
5900;SDS011;2976;49.764;9.796;2022-10-16T02:58:44;0.80;;;0.80;;
5900;SDS011;2976;49.764;9.796;2022-10-16T03:01:09;1.03;;;0.93;;
5900;SDS011;2976;49.764;9.796;2022-10-16T03:03:37;2.00;;;1.00;;
5900;SDS011;2976;49.764;9.796;2022-10-16T03:06:02;6.53;;;1.10;;
5900;SDS011;2976;49.764;9.796;2022-10-16T03:08:28;5.00;;;1.03;;
5900;SDS011;2976;49.764;9.796;2022-10-16T03:10:54;0.70;;;0.70;;
5900;SDS011;2976;49.764;9.796;2022-10-16T03:13:20;5.17;;;1.17;;
5900;SDS011;2976;49.764;9.796;2022-10-16T03:15:45;1.67;;;0.70;;
5900;SDS011;2976;49.764;9.796;2022-10-16T03:18:11;1.43;;;1.33;;
5900;SDS011;2976;49.764;9.796;2022-10-16T03:20:37;0.90;;;0.90;;
5900;SDS011;2976;49.764;9.796;2022-10-16T03:23:02;0.90;;;0.90;;
5900;SDS011;2976;49.764;9.796;2022-10-16T03:25:28;1.17;;;1.07;;
5900;SDS011;2976;49.764;9.796;2022-10-16T03:27:54;2.10;;;1.27;;
5900;SDS011;2976;49.764;9.796;2022-10-16T03:30:19;2.30;;;1.03;;
5900;SDS011;2976;49.764;9.796;2022-10-16T03:32:45;5.60;;;1.00;;
5900;SDS011;2976;49.764;9.796;2022-10-16T03:35:11;2.50;;;0.80;;
5900;SDS011;2976;49.764;9.796;2022-10-16T03:37:37;4.50;;;1.17;;
5900;SDS011;2976;49.764;9.796;2022-10-16T03:40:03;1.37;;;1.27;;
5900;SDS011;2976;49.764;9.796;2022-10-16T03:42:29;4.73;;;1.37;;
5900;SDS011;2976;49.764;9.796;2022-10-16T03:44:55;2.97;;;1.20;;
5900;SDS011;2976;49.764;9.796;2022-10-16T03:47:20;0.97;;;0.90;;
5900;SDS011;2976;49.764;9.796;2022-10-16T03:49:48;5.93;;;0.90;;
5900;SDS011;2976;49.764;9.796;2022-10-16T03:52:14;4.03;;;0.80;;
5900;SDS011;2976;49.764;9.796;2022-10-16T03:54:39;2.03;;;0.97;;
5900;SDS011;2976;49.764;9.796;2022-10-16T03:57:05;0.90;;;0.90;;
5900;SDS011;2976;49.764;9.796;2022-10-16T03:59:30;2.83;;;0.90;;
5900;SDS011;2976;49.764;9.796;2022-10-16T04:01:56;1.17;;;0.70;;
5900;SDS011;2976;49.764;9.796;2022-10-16T04:04:21;1.87;;;0.60;;
5900;SDS011;2976;49.764;9.796;2022-10-16T04:06:47;1.73;;;0.90;;
5900;SDS011;2976;49.764;9.796;2022-10-16T04:09:12;0.83;;;0.63;;
5900;SDS011;2976;49.764;9.796;2022-10-16T04:11:38;2.33;;;0.97;;
5900;SDS011;2976;49.764;9.796;2022-10-16T04:14:04;2.03;;;1.23;;
5900;SDS011;2976;49.764;9.796;2022-10-16T04:16:29;4.20;;;1.03;;
5900;SDS011;2976;49.764;9.796;2022-10-16T04:18:55;1.77;;;1.00;;
5900;SDS011;2976;49.764;9.796;2022-10-16T04:21:20;6.40;;;1.13;;
5900;SDS011;2976;49.764;9.796;2022-10-16T04:23:47;0.90;;;0.90;;
5900;SDS011;2976;49.764;9.796;2022-10-16T04:26:13;1.80;;;0.70;;
5900;SDS011;2976;49.764;9.796;2022-10-16T04:28:38;16.53;;;1.43;;
5900;SDS011;2976;49.764;9.796;2022-10-16T04:31:04;0.90;;;0.90;;
5900;SDS011;2976;49.764;9.796;2022-10-16T04:33:30;3.07;;;1.10;;
5900;SDS011;2976;49.764;9.796;2022-10-16T04:35:57;2.90;;;1.10;;
5900;SDS011;2976;49.764;9.796;2022-10-16T04:38:23;3.43;;;1.10;;
5900;SDS011;2976;49.764;9.796;2022-10-16T04:40:49;2.20;;;0.80;;
5900;SDS011;2976;49.764;9.796;2022-10-16T04:43:14;4.17;;;0.90;;
5900;SDS011;2976;49.764;9.796;2022-10-16T04:45:40;0.70;;;0.70;;
5900;SDS011;2976;49.764;9.796;2022-10-16T04:48:05;1.23;;;0.93;;
5900;SDS011;2976;49.764;9.796;2022-10-16T04:50:31;1.23;;;0.57;;
5900;SDS011;2976;49.764;9.796;2022-10-16T04:52:57;4.00;;;1.10;;
5900;SDS011;2976;49.764;9.796;2022-10-16T04:55:22;2.60;;;1.00;;
5900;SDS011;2976;49.764;9.796;2022-10-16T04:57:48;1.00;;;0.80;;
5900;SDS011;2976;49.764;9.796;2022-10-16T05:00:13;2.10;;;0.97;;
5900;SDS011;2976;49.764;9.796;2022-10-16T05:02:39;6.70;;;0.80;;
5900;SDS011;2976;49.764;9.796;2022-10-16T05:05:04;0.97;;;0.80;;
5900;SDS011;2976;49.764;9.796;2022-10-16T05:07:30;2.93;;;0.80;;
5900;SDS011;2976;49.764;9.796;2022-10-16T05:09:56;2.00;;;1.00;;
5900;SDS011;2976;49.764;9.796;2022-10-16T05:12:21;0.87;;;0.77;;
5900;SDS011;2976;49.764;9.796;2022-10-16T05:14:47;1.03;;;0.93;;
5900;SDS011;2976;49.764;9.796;2022-10-16T05:17:12;2.30;;;0.90;;
5900;SDS011;2976;49.764;9.796;2022-10-16T05:19:38;2.67;;;0.80;;
5900;SDS011;2976;49.764;9.796;2022-10-16T05:22:04;1.80;;;0.70;;
5900;SDS011;2976;49.764;9.796;2022-10-16T05:24:29;3.13;;;0.87;;
5900;SDS011;2976;49.764;9.796;2022-10-16T05:26:55;3.70;;;1.00;;
5900;SDS011;2976;49.764;9.796;2022-10-16T05:29:21;1.10;;;1.07;;
5900;SDS011;2976;49.764;9.796;2022-10-16T05:31:46;13.03;;;1.50;;
5900;SDS011;2976;49.764;9.796;2022-10-16T05:34:15;2.60;;;1.00;;
5900;SDS011;2976;49.764;9.796;2022-10-16T05:36:41;1.53;;;1.07;;
5900;SDS011;2976;49.764;9.796;2022-10-16T05:39:06;1.40;;;0.80;;
5900;SDS011;2976;49.764;9.796;2022-10-16T05:41:32;1.53;;;1.17;;
5900;SDS011;2976;49.764;9.796;2022-10-16T05:43:57;4.30;;;0.83;;
5900;SDS011;2976;49.764;9.796;2022-10-16T05:46:23;1.20;;;1.10;;
5900;SDS011;2976;49.764;9.796;2022-10-16T05:48:51;1.80;;;0.70;;
5900;SDS011;2976;49.764;9.796;2022-10-16T05:51:17;1.60;;;1.50;;
5900;SDS011;2976;49.764;9.796;2022-10-16T05:53:43;1.53;;;1.07;;
5900;SDS011;2976;49.764;9.796;2022-10-16T05:56:09;4.13;;;1.00;;
5900;SDS011;2976;49.764;9.796;2022-10-16T05:58:36;2.20;;;0.80;;
5900;SDS011;2976;49.764;9.796;2022-10-16T06:03:38;1.50;;;0.90;;
5900;SDS011;2976;49.764;9.796;2022-10-16T06:06:10;1.93;;;1.10;;
5900;SDS011;2976;49.764;9.796;2022-10-16T06:08:38;1.50;;;1.40;;
5900;SDS011;2976;49.764;9.796;2022-10-16T06:11:05;3.20;;;1.20;;
5900;SDS011;2976;49.764;9.796;2022-10-16T06:13:33;0.70;;;0.70;;
5900;SDS011;2976;49.764;9.796;2022-10-16T06:15:59;0.63;;;0.63;;
5900;SDS011;2976;49.764;9.796;2022-10-16T06:18:26;1.20;;;0.87;;
5900;SDS011;2976;49.764;9.796;2022-10-16T06:20:52;3.00;;;1.10;;
5900;SDS011;2976;49.764;9.796;2022-10-16T06:23:18;1.90;;;1.10;;
5900;SDS011;2976;49.764;9.796;2022-10-16T06:25:44;0.73;;;0.73;;
5900;SDS011;2976;49.764;9.796;2022-10-16T06:28:09;1.87;;;1.00;;
5900;SDS011;2976;49.764;9.796;2022-10-16T06:30:35;0.93;;;0.93;;
5900;SDS011;2976;49.764;9.796;2022-10-16T06:33:00;0.90;;;0.90;;
5900;SDS011;2976;49.764;9.796;2022-10-16T06:35:26;1.43;;;0.87;;
5900;SDS011;2976;49.764;9.796;2022-10-16T06:37:54;4.03;;;1.17;;
5900;SDS011;2976;49.764;9.796;2022-10-16T06:40:20;0.90;;;0.90;;
5900;SDS011;2976;49.764;9.796;2022-10-16T06:42:45;4.30;;;0.93;;
5900;SDS011;2976;49.764;9.796;2022-10-16T06:45:11;2.10;;;1.17;;
5900;SDS011;2976;49.764;9.796;2022-10-16T06:47:37;2.20;;;1.00;;
5900;SDS011;2976;49.764;9.796;2022-10-16T06:50:03;12.13;;;1.53;;
5900;SDS011;2976;49.764;9.796;2022-10-16T06:52:31;3.97;;;1.00;;
5900;SDS011;2976;49.764;9.796;2022-10-16T06:54:57;0.70;;;0.70;;
5900;SDS011;2976;49.764;9.796;2022-10-16T06:57:22;0.80;;;0.80;;
5900;SDS011;2976;49.764;9.796;2022-10-16T06:59:48;4.07;;;0.87;;
5900;SDS011;2976;49.764;9.796;2022-10-16T07:02:13;1.10;;;1.00;;
5900;SDS011;2976;49.764;9.796;2022-10-16T07:04:39;1.00;;;1.00;;
5900;SDS011;2976;49.764;9.796;2022-10-16T07:07:04;5.60;;;0.63;;
5900;SDS011;2976;49.764;9.796;2022-10-16T07:09:30;3.33;;;1.10;;
5900;SDS011;2976;49.764;9.796;2022-10-16T07:11:55;6.10;;;0.90;;
5900;SDS011;2976;49.764;9.796;2022-10-16T07:14:21;5.07;;;1.07;;
5900;SDS011;2976;49.764;9.796;2022-10-16T07:16:47;9.40;;;1.23;;
5900;SDS011;2976;49.764;9.796;2022-10-16T07:19:13;1.87;;;1.00;;
5900;SDS011;2976;49.764;9.796;2022-10-16T07:21:43;3.50;;;1.10;;
5900;SDS011;2976;49.764;9.796;2022-10-16T07:24:15;4.70;;;1.50;;
5900;SDS011;2976;49.764;9.796;2022-10-16T07:26:42;1.60;;;1.37;;
5900;SDS011;2976;49.764;9.796;2022-10-16T07:29:13;4.87;;;1.73;;
5900;SDS011;2976;49.764;9.796;2022-10-16T07:31:46;2.47;;;1.70;;
5900;SDS011;2976;49.764;9.796;2022-10-16T07:34:13;2.50;;;1.07;;
5900;SDS011;2976;49.764;9.796;2022-10-16T07:36:40;4.00;;;1.60;;
5900;SDS011;2976;49.764;9.796;2022-10-16T07:39:06;2.33;;;1.53;;
5900;SDS011;2976;49.764;9.796;2022-10-16T07:41:31;1.63;;;1.53;;
5900;SDS011;2976;49.764;9.796;2022-10-16T07:43:58;2.57;;;1.37;;
5900;SDS011;2976;49.764;9.796;2022-10-16T07:46:26;4.00;;;1.20;;
5900;SDS011;2976;49.764;9.796;2022-10-16T07:48:52;3.67;;;1.13;;
5900;SDS011;2976;49.764;9.796;2022-10-16T07:51:19;2.50;;;1.40;;
5900;SDS011;2976;49.764;9.796;2022-10-16T07:53:46;1.63;;;1.50;;
5900;SDS011;2976;49.764;9.796;2022-10-16T07:56:12;4.40;;;3.13;;
5900;SDS011;2976;49.764;9.796;2022-10-16T07:58:39;5.80;;;3.87;;
5900;SDS011;2976;49.764;9.796;2022-10-16T08:01:06;4.67;;;3.20;;
5900;SDS011;2976;49.764;9.796;2022-10-16T08:03:33;5.40;;;4.17;;
5900;SDS011;2976;49.764;9.796;2022-10-16T08:05:58;5.00;;;3.27;;
5900;SDS011;2976;49.764;9.796;2022-10-16T08:08:25;3.20;;;1.93;;
5900;SDS011;2976;49.764;9.796;2022-10-16T08:10:51;5.80;;;1.80;;
5900;SDS011;2976;49.764;9.796;2022-10-16T08:13:17;2.30;;;2.07;;
5900;SDS011;2976;49.764;9.796;2022-10-16T08:15:43;3.07;;;1.77;;
5900;SDS011;2976;49.764;9.796;2022-10-16T08:18:10;2.20;;;2.00;;
5900;SDS011;2976;49.764;9.796;2022-10-16T08:20:37;4.73;;;1.40;;
5900;SDS011;2976;49.764;9.796;2022-10-16T08:23:03;1.90;;;1.43;;
5900;SDS011;2976;49.764;9.796;2022-10-16T08:25:29;1.77;;;1.67;;
5900;SDS011;2976;49.764;9.796;2022-10-16T08:27:55;2.93;;;1.80;;
5900;SDS011;2976;49.764;9.796;2022-10-16T08:30:21;2.80;;;1.83;;
5900;SDS011;2976;49.764;9.796;2022-10-16T08:32:48;4.37;;;1.63;;
5900;SDS011;2976;49.764;9.796;2022-10-16T08:35:14;3.30;;;1.57;;
5900;SDS011;2976;49.764;9.796;2022-10-16T08:37:41;2.87;;;1.13;;
5900;SDS011;2976;49.764;9.796;2022-10-16T08:40:07;1.63;;;1.40;;
5900;SDS011;2976;49.764;9.796;2022-10-16T08:45:34;2.33;;;0.90;;
5900;SDS011;2976;49.764;9.796;2022-10-16T08:51:10;2.47;;;1.10;;
5900;SDS011;2976;49.764;9.796;2022-10-16T08:53:48;2.73;;;1.00;;
5900;SDS011;2976;49.764;9.796;2022-10-16T08:56:14;3.57;;;1.40;;
5900;SDS011;2976;49.764;9.796;2022-10-16T08:58:42;3.33;;;1.00;;
5900;SDS011;2976;49.764;9.796;2022-10-16T09:01:11;3.60;;;0.90;;
5900;SDS011;2976;49.764;9.796;2022-10-16T09:23:36;0.53;;;0.53;;
5900;SDS011;2976;49.764;9.796;2022-10-16T09:25:37;3.43;;;0.87;;
5900;SDS011;2976;49.764;9.796;2022-10-16T09:28:04;5.07;;;0.70;;
5900;SDS011;2976;49.764;9.796;2022-10-16T09:30:30;1.00;;;0.90;;
5900;SDS011;2976;49.764;9.796;2022-10-16T09:32:57;4.77;;;0.83;;
5900;SDS011;2976;49.764;9.796;2022-10-16T09:36:05;2.10;;;0.87;;
5900;SDS011;2976;49.764;9.796;2022-10-16T09:38:24;1.80;;;0.83;;
5900;SDS011;2976;49.764;9.796;2022-10-16T09:40:51;3.60;;;1.33;;
5900;SDS011;2976;49.764;9.796;2022-10-16T09:48:27;1.33;;;0.90;;
5900;SDS011;2976;49.764;9.796;2022-10-16T09:51:02;4.60;;;0.87;;
5900;SDS011;2976;49.764;9.796;2022-10-16T09:53:40;4.63;;;1.30;;
5900;SDS011;2976;49.764;9.796;2022-10-16T09:56:10;1.90;;;0.97;;
5900;SDS011;2976;49.764;9.796;2022-10-16T09:58:49;1.83;;;0.73;;
5900;SDS011;2976;49.764;9.796;2022-10-16T10:01:19;2.73;;;1.07;;
5900;SDS011;2976;49.764;9.796;2022-10-16T10:03:47;0.83;;;0.80;;
5900;SDS011;2976;49.764;9.796;2022-10-16T10:06:28;2.10;;;1.10;;
5900;SDS011;2976;49.764;9.796;2022-10-16T10:09:06;1.07;;;0.97;;
5900;SDS011;2976;49.764;9.796;2022-10-16T10:14:12;3.50;;;1.23;;
5900;SDS011;2976;49.764;9.796;2022-10-16T10:16:42;3.17;;;1.43;;
5900;SDS011;2976;49.764;9.796;2022-10-16T10:19:13;4.87;;;1.27;;
5900;SDS011;2976;49.764;9.796;2022-10-16T10:21:49;3.63;;;1.07;;
5900;SDS011;2976;49.764;9.796;2022-10-16T10:24:17;3.10;;;1.40;;
5900;SDS011;2976;49.764;9.796;2022-10-16T10:26:54;2.93;;;1.70;;
5900;SDS011;2976;49.764;9.796;2022-10-16T10:34:35;2.10;;;1.70;;
5900;SDS011;2976;49.764;9.796;2022-10-16T10:38:04;3.53;;;1.80;;
5900;SDS011;2976;49.764;9.796;2022-10-16T10:41:00;4.87;;;1.90;;
5900;SDS011;2976;49.764;9.796;2022-10-16T10:50:25;3.00;;;1.20;;
5900;SDS011;2976;49.764;9.796;2022-10-16T11:01:10;2.27;;;1.20;;
5900;SDS011;2976;49.764;9.796;2022-10-16T11:04:00;2.73;;;1.10;;
5900;SDS011;2976;49.764;9.796;2022-10-16T11:06:51;3.73;;;1.00;;
5900;SDS011;2976;49.764;9.796;2022-10-16T11:09:44;3.53;;;1.50;;
5900;SDS011;2976;49.764;9.796;2022-10-16T11:17:28;1.87;;;0.80;;
5900;SDS011;2976;49.764;9.796;2022-10-16T11:20:04;0.97;;;0.97;;
5900;SDS011;2976;49.764;9.796;2022-10-16T11:22:54;3.83;;;1.07;;
5900;SDS011;2976;49.764;9.796;2022-10-16T11:25:35;5.60;;;2.33;;
5900;SDS011;2976;49.764;9.796;2022-10-16T11:28:10;3.10;;;1.43;;
5900;SDS011;2976;49.764;9.796;2022-10-16T11:30:44;2.83;;;1.47;;
5900;SDS011;2976;49.764;9.796;2022-10-16T11:35:44;2.23;;;1.17;;
5900;SDS011;2976;49.764;9.796;2022-10-16T11:38:51;1.33;;;0.80;;
5900;SDS011;2976;49.764;9.796;2022-10-16T11:41:52;1.43;;;1.13;;
5900;SDS011;2976;49.764;9.796;2022-10-16T11:44:23;6.70;;;1.80;;
5900;SDS011;2976;49.764;9.796;2022-10-16T11:49:30;2.10;;;1.10;;
5900;SDS011;2976;49.764;9.796;2022-10-16T11:54:43;1.40;;;1.03;;
5900;SDS011;2976;49.764;9.796;2022-10-16T11:57:31;0.87;;;0.70;;
5900;SDS011;2976;49.764;9.796;2022-10-16T12:00:14;9.80;;;1.10;;
5900;SDS011;2976;49.764;9.796;2022-10-16T12:05:31;4.60;;;0.80;;
5900;SDS011;2976;49.764;9.796;2022-10-16T12:08:17;3.23;;;0.80;;
5900;SDS011;2976;49.764;9.796;2022-10-16T12:10:44;4.33;;;1.03;;
5900;SDS011;2976;49.764;9.796;2022-10-16T12:18:37;0.90;;;0.90;;
5900;SDS011;2976;49.764;9.796;2022-10-16T12:21:04;4.73;;;1.20;;
5900;SDS011;2976;49.764;9.796;2022-10-16T12:23:32;4.20;;;1.50;;
5900;SDS011;2976;49.764;9.796;2022-10-16T12:26:02;1.63;;;1.07;;
5900;SDS011;2976;49.764;9.796;2022-10-16T12:28:29;1.93;;;1.10;;
5900;SDS011;2976;49.764;9.796;2022-10-16T12:31:03;1.20;;;0.90;;
5900;SDS011;2976;49.764;9.796;2022-10-16T12:33:31;2.07;;;1.23;;
5900;SDS011;2976;49.764;9.796;2022-10-16T12:35:58;3.30;;;0.90;;
5900;SDS011;2976;49.764;9.796;2022-10-16T12:38:27;2.50;;;1.07;;
5900;SDS011;2976;49.764;9.796;2022-10-16T12:41:07;2.50;;;0.87;;
5900;SDS011;2976;49.764;9.796;2022-10-16T12:43:40;2.63;;;1.00;;
5900;SDS011;2976;49.764;9.796;2022-10-16T12:48:33;3.40;;;0.97;;
5900;SDS011;2976;49.764;9.796;2022-10-16T12:51:12;1.77;;;1.67;;
5900;SDS011;2976;49.764;9.796;2022-10-16T13:19:29;7.43;;;1.17;;
5900;SDS011;2976;49.764;9.796;2022-10-16T13:27:34;1.43;;;1.27;;
5900;SDS011;2976;49.764;9.796;2022-10-16T13:30:23;1.33;;;1.10;;
5900;SDS011;2976;49.764;9.796;2022-10-16T13:32:54;2.00;;;1.17;;
5900;SDS011;2976;49.764;9.796;2022-10-16T13:35:29;3.07;;;1.50;;
5900;SDS011;2976;49.764;9.796;2022-10-16T13:38:03;5.60;;;1.63;;
5900;SDS011;2976;49.764;9.796;2022-10-16T13:40:31;2.50;;;0.90;;
5900;SDS011;2976;49.764;9.796;2022-10-16T13:42:59;2.83;;;1.03;;
5900;SDS011;2976;49.764;9.796;2022-10-16T13:45:25;3.43;;;1.60;;
5900;SDS011;2976;49.764;9.796;2022-10-16T13:48:03;1.43;;;1.00;;
5900;SDS011;2976;49.764;9.796;2022-10-16T13:50:30;1.20;;;1.10;;
5900;SDS011;2976;49.764;9.796;2022-10-16T13:53:14;0.73;;;0.73;;
5900;SDS011;2976;49.764;9.796;2022-10-16T13:55:40;1.43;;;1.07;;
5900;SDS011;2976;49.764;9.796;2022-10-16T13:58:11;1.10;;;1.07;;
5900;SDS011;2976;49.764;9.796;2022-10-16T14:00:38;4.83;;;1.13;;
5900;SDS011;2976;49.764;9.796;2022-10-16T14:03:22;1.13;;;1.00;;
5900;SDS011;2976;49.764;9.796;2022-10-16T14:05:53;1.43;;;1.20;;
5900;SDS011;2976;49.764;9.796;2022-10-16T14:08:30;2.13;;;0.90;;
5900;SDS011;2976;49.764;9.796;2022-10-16T14:10:57;4.00;;;1.20;;
5900;SDS011;2976;49.764;9.796;2022-10-16T14:13:37;4.73;;;1.00;;
5900;SDS011;2976;49.764;9.796;2022-10-16T14:16:08;2.10;;;1.07;;
5900;SDS011;2976;49.764;9.796;2022-10-16T14:18:36;0.87;;;0.63;;
5900;SDS011;2976;49.764;9.796;2022-10-16T14:21:07;3.07;;;1.13;;
5900;SDS011;2976;49.764;9.796;2022-10-16T14:23:37;2.00;;;1.00;;
5900;SDS011;2976;49.764;9.796;2022-10-16T14:26:05;1.43;;;0.80;;
5900;SDS011;2976;49.764;9.796;2022-10-16T14:28:35;1.10;;;1.00;;
5900;SDS011;2976;49.764;9.796;2022-10-16T14:31:02;0.93;;;0.80;;
5900;SDS011;2976;49.764;9.796;2022-10-16T14:33:56;0.90;;;0.90;;
5900;SDS011;2976;49.764;9.796;2022-10-16T14:36:22;1.10;;;0.97;;
5900;SDS011;2976;49.764;9.796;2022-10-16T14:38:53;0.87;;;0.87;;
5900;SDS011;2976;49.764;9.796;2022-10-16T14:41:22;2.73;;;1.27;;
5900;SDS011;2976;49.764;9.796;2022-10-16T14:43:56;5.20;;;1.00;;
5900;SDS011;2976;49.764;9.796;2022-10-16T14:46:29;1.10;;;0.93;;
5900;SDS011;2976;49.764;9.796;2022-10-16T14:49:03;10.60;;;1.40;;
5900;SDS011;2976;49.764;9.796;2022-10-16T14:51:30;0.80;;;0.80;;
5900;SDS011;2976;49.764;9.796;2022-10-16T14:53:55;1.33;;;1.00;;
5900;SDS011;2976;49.764;9.796;2022-10-16T14:56:22;0.90;;;0.90;;
5900;SDS011;2976;49.764;9.796;2022-10-16T14:58:50;1.37;;;1.27;;
5900;SDS011;2976;49.764;9.796;2022-10-16T15:01:17;1.63;;;1.13;;
5900;SDS011;2976;49.764;9.796;2022-10-16T15:03:43;3.67;;;0.83;;
5900;SDS011;2976;49.764;9.796;2022-10-16T15:06:11;4.20;;;1.00;;
5900;SDS011;2976;49.764;9.796;2022-10-16T15:08:38;1.43;;;1.33;;
5900;SDS011;2976;49.764;9.796;2022-10-16T15:11:04;5.43;;;1.87;;
5900;SDS011;2976;49.764;9.796;2022-10-16T15:13:31;3.23;;;1.57;;
5900;SDS011;2976;49.764;9.796;2022-10-16T15:15:56;4.60;;;1.90;;
5900;SDS011;2976;49.764;9.796;2022-10-16T15:18:23;7.67;;;1.40;;
5900;SDS011;2976;49.764;9.796;2022-10-16T15:20:50;4.83;;;2.57;;
5900;SDS011;2976;49.764;9.796;2022-10-16T15:23:17;2.33;;;1.90;;
5900;SDS011;2976;49.764;9.796;2022-10-16T15:28:14;11.93;;;4.10;;
5900;SDS011;2976;49.764;9.796;2022-10-16T15:30:41;4.97;;;3.30;;
5900;SDS011;2976;49.764;9.796;2022-10-16T15:33:17;6.70;;;2.67;;
5900;SDS011;2976;49.764;9.796;2022-10-16T15:35:48;4.47;;;3.30;;
5900;SDS011;2976;49.764;9.796;2022-10-16T15:38:15;3.80;;;2.50;;
5900;SDS011;2976;49.764;9.796;2022-10-16T15:40:42;5.23;;;2.00;;
5900;SDS011;2976;49.764;9.796;2022-10-16T15:43:07;1.90;;;1.60;;
5900;SDS011;2976;49.764;9.796;2022-10-16T15:45:33;8.70;;;1.13;;
5900;SDS011;2976;49.764;9.796;2022-10-16T15:47:59;8.13;;;1.70;;
5900;SDS011;2976;49.764;9.796;2022-10-16T15:50:25;2.40;;;1.30;;
5900;SDS011;2976;49.764;9.796;2022-10-16T15:52:51;6.27;;;1.50;;
5900;SDS011;2976;49.764;9.796;2022-10-16T15:55:17;3.80;;;1.33;;
5900;SDS011;2976;49.764;9.796;2022-10-16T15:57:43;2.73;;;1.70;;
5900;SDS011;2976;49.764;9.796;2022-10-16T16:00:14;1.07;;;1.07;;
5900;SDS011;2976;49.764;9.796;2022-10-16T16:02:42;2.37;;;1.67;;
5900;SDS011;2976;49.764;9.796;2022-10-16T16:05:09;2.43;;;1.30;;
5900;SDS011;2976;49.764;9.796;2022-10-16T16:07:36;4.07;;;1.73;;
5900;SDS011;2976;49.764;9.796;2022-10-16T16:10:03;3.97;;;1.90;;
5900;SDS011;2976;49.764;9.796;2022-10-16T16:12:31;5.93;;;2.53;;
5900;SDS011;2976;49.764;9.796;2022-10-16T16:14:57;5.23;;;2.20;;
5900;SDS011;2976;49.764;9.796;2022-10-16T16:17:23;4.07;;;1.73;;
5900;SDS011;2976;49.764;9.796;2022-10-16T16:19:49;3.97;;;2.20;;
5900;SDS011;2976;49.764;9.796;2022-10-16T16:22:15;2.40;;;2.10;;
5900;SDS011;2976;49.764;9.796;2022-10-16T16:24:40;9.90;;;1.60;;
5900;SDS011;2976;49.764;9.796;2022-10-16T16:27:06;5.50;;;2.70;;
5900;SDS011;2976;49.764;9.796;2022-10-16T16:29:32;2.93;;;2.73;;
5900;SDS011;2976;49.764;9.796;2022-10-16T16:31:58;3.63;;;2.53;;
5900;SDS011;2976;49.764;9.796;2022-10-16T16:34:25;2.17;;;1.97;;
5900;SDS011;2976;49.764;9.796;2022-10-16T16:36:54;5.90;;;1.70;;
5900;SDS011;2976;49.764;9.796;2022-10-16T16:39:20;2.97;;;1.50;;
5900;SDS011;2976;49.764;9.796;2022-10-16T16:41:46;5.73;;;1.33;;
5900;SDS011;2976;49.764;9.796;2022-10-16T16:44:12;1.80;;;1.70;;
5900;SDS011;2976;49.764;9.796;2022-10-16T16:46:38;2.87;;;1.40;;
5900;SDS011;2976;49.764;9.796;2022-10-16T16:49:05;3.73;;;1.27;;
5900;SDS011;2976;49.764;9.796;2022-10-16T16:51:32;5.70;;;2.37;;
5900;SDS011;2976;49.764;9.796;2022-10-16T16:53:58;4.30;;;1.60;;
5900;SDS011;2976;49.764;9.796;2022-10-16T16:56:24;3.13;;;1.97;;
5900;SDS011;2976;49.764;9.796;2022-10-16T16:58:51;2.50;;;2.30;;
5900;SDS011;2976;49.764;9.796;2022-10-16T17:01:19;2.00;;;1.90;;
5900;SDS011;2976;49.764;9.796;2022-10-16T17:03:46;2.07;;;1.90;;
5900;SDS011;2976;49.764;9.796;2022-10-16T17:06:14;1.60;;;1.50;;
5900;SDS011;2976;49.764;9.796;2022-10-16T17:08:40;4.40;;;4.00;;
5900;SDS011;2976;49.764;9.796;2022-10-16T17:11:11;7.97;;;5.40;;
5900;SDS011;2976;49.764;9.796;2022-10-16T17:13:40;6.07;;;3.07;;
5900;SDS011;2976;49.764;9.796;2022-10-16T17:16:06;17.53;;;10.03;;
5900;SDS011;2976;49.764;9.796;2022-10-16T17:18:33;7.00;;;6.03;;
5900;SDS011;2976;49.764;9.796;2022-10-16T17:21:00;6.97;;;5.50;;
5900;SDS011;2976;49.764;9.796;2022-10-16T17:23:26;9.70;;;4.90;;
5900;SDS011;2976;49.764;9.796;2022-10-16T17:25:52;3.47;;;2.53;;
5900;SDS011;2976;49.764;9.796;2022-10-16T17:28:18;4.80;;;3.50;;
5900;SDS011;2976;49.764;9.796;2022-10-16T17:30:44;7.23;;;4.40;;
5900;SDS011;2976;49.764;9.796;2022-10-16T17:33:10;5.93;;;4.60;;
5900;SDS011;2976;49.764;9.796;2022-10-16T17:35:37;4.87;;;3.50;;
5900;SDS011;2976;49.764;9.796;2022-10-16T17:38:02;6.80;;;4.93;;
5900;SDS011;2976;49.764;9.796;2022-10-16T17:40:28;13.67;;;8.83;;
5900;SDS011;2976;49.764;9.796;2022-10-16T17:42:54;13.40;;;6.87;;